createdAt,value
2017-08-12T00:01:22.449Z,"    0"
2017-08-12T00:06:18.609Z,"    0"
2017-08-12T00:11:14.602Z,"    0"
2017-08-12T00:21:15.613Z,"    0"
2017-08-12T00:26:13.410Z,"    0"
2017-08-12T00:31:10.890Z,"    0"
2017-08-12T00:36:10.670Z,"    0"
2017-08-12T00:41:07.494Z,"    0"
2017-08-12T00:46:06.701Z,"    0"
2017-08-12T00:51:07.723Z,"    0"
2017-08-12T00:56:09.201Z,"    0"
2017-08-12T01:01:05.777Z,"    0"
2017-08-12T01:06:04.252Z,"    0"
2017-08-12T01:16:08.621Z,"    0"
2017-08-12T01:21:10.422Z,"    0"
2017-08-12T01:26:11.278Z,"    0"
2017-08-12T01:31:09.704Z,"    0"
2017-08-12T02:01:20.220Z,"    0"
2017-08-12T02:11:25.600Z,"    0"
2017-08-12T02:57:02.342Z,"    0"
2017-08-12T03:57:52.236Z,"    0"
2017-08-12T04:23:11.157Z,"    0"
2017-08-12T04:28:10.333Z,"    5"
2017-08-12T04:33:16.002Z,"   10"
2017-08-12T04:38:14.414Z,"   15"
2017-08-12T05:23:42.978Z,"   40"
2017-08-12T05:33:45.041Z,"   30"
2017-08-12T05:38:47.394Z,"   30"
2017-08-12T05:58:59.027Z,"   35"
2017-08-12T06:09:04.693Z,"   50"
2017-08-12T06:19:06.696Z,"   30"
2017-08-12T06:24:02.619Z,"   25"
2017-08-12T06:29:00.649Z,"   20"
2017-08-12T06:39:02.527Z,"   40"
2017-08-12T06:43:58.982Z,"   50"
2017-08-12T06:48:58.694Z,"   55"
2017-08-12T07:04:04.412Z,"   50"
2017-08-12T07:09:01.121Z,"   55"
2017-08-12T07:13:57.135Z,"   45"
2017-08-12T07:18:53.018Z,"   45"
2017-08-12T07:23:49.197Z,"   35"
2017-08-12T07:28:46.632Z,"   35"
2017-08-12T07:33:42.198Z,"   35"
2017-08-12T07:38:38.366Z,"   40"
2017-08-12T07:53:40.793Z,"   50"
2017-08-12T07:58:37.786Z,"   50"
2017-08-12T08:08:42.080Z,"   95"
2017-08-12T08:23:46.592Z,"   75"
2017-08-12T08:28:41.369Z,"  110"
2017-08-12T08:33:39.130Z,"  120"
2017-08-12T08:38:35.946Z,"  170"
2017-08-12T08:43:34.466Z,"  265"
2017-08-12T08:53:35.877Z,"  190"
2017-08-12T08:58:33.256Z,"  225"
2017-08-12T09:03:29.348Z,"  290"
2017-08-12T09:08:26.397Z,"  255"
2017-08-12T09:13:23.298Z,"  170"
2017-08-12T09:18:19.508Z,"  135"
2017-08-12T09:28:20.923Z,"  170"
2017-08-12T09:33:16.710Z,"  175"
2017-08-12T09:38:12.882Z,"  115"
2017-08-12T09:43:09.918Z,"  140"
2017-08-12T09:48:08.750Z,"  110"
2017-08-12T09:53:05.016Z,"  110"
2017-08-12T09:58:01.688Z,"  120"
2017-08-12T10:02:57.661Z,"   80"
2017-08-12T10:07:53.394Z,"  110"
2017-08-12T10:12:50.517Z,"  115"
2017-08-12T10:17:46.579Z,"  140"
2017-08-12T10:22:43.520Z,"  170"
2017-08-12T10:27:40.353Z,"  120"
2017-08-12T10:32:36.238Z,"  140"
2017-08-12T10:37:33.789Z,"  155"
2017-08-12T10:42:30.665Z,"  120"
2017-08-12T10:47:28.392Z,"  105"
2017-08-12T10:52:25.192Z,"   85"
2017-08-12T10:57:21.846Z,"  110"
2017-08-12T11:02:17.319Z,"  150"
2017-08-12T11:07:13.698Z,"  100"
2017-08-12T11:12:11.061Z,"  110"
2017-08-12T11:17:08.564Z,"  100"
2017-08-12T11:22:05.185Z,"  100"
2017-08-12T11:27:02.081Z,"   85"
2017-08-12T11:31:58.111Z,"   85"
2017-08-12T11:36:53.859Z,"  105"
2017-08-12T11:41:51.043Z,"  160"
2017-08-12T11:46:49.951Z,"  145"
2017-08-12T11:51:49.357Z,"  140"
2017-08-12T11:56:45.067Z,"  170"
2017-08-12T12:01:41.984Z,"  115"
2017-08-12T12:06:44.529Z,"   85"
2017-08-12T12:11:41.834Z,"  110"
2017-08-12T12:16:40.013Z,"  130"
2017-08-12T12:21:37.640Z,"  100"
2017-08-12T12:26:34.244Z,"   90"
2017-08-12T12:31:30.108Z,"   70"
2017-08-12T12:36:26.549Z,"  120"
2017-08-12T12:41:23.143Z,"  115"
2017-08-12T12:46:21.110Z,"  105"
2017-08-12T12:51:18.666Z,"   80"
2017-08-12T12:56:14.306Z,"  120"
2017-08-12T13:01:11.242Z,"   80"
2017-08-12T13:06:06.986Z,"   85"
2017-08-12T13:11:04.372Z,"   90"
2017-08-12T13:16:01.268Z,"   70"
2017-08-12T13:20:57.605Z,"   80"
2017-08-12T13:25:53.388Z,"   80"
2017-08-12T13:30:49.749Z,"   95"
2017-08-12T13:35:46.271Z,"   95"
2017-08-12T13:40:43.033Z,"   95"
2017-08-12T13:45:39.430Z,"   90"
2017-08-12T13:50:36.266Z,"  155"
2017-08-12T13:55:31.976Z,"  195"
2017-08-12T14:00:29.812Z,"  180"
2017-08-12T14:05:28.149Z,"  130"
2017-08-12T14:10:26.290Z,"   75"
2017-08-12T14:15:22.978Z,"   85"
2017-08-12T14:20:20.099Z,"  125"
2017-08-12T14:25:17.260Z,"  180"
2017-08-12T14:30:15.587Z,"  150"
2017-08-12T14:35:12.768Z,"  205"
2017-08-12T14:40:08.460Z,"  215"
2017-08-12T14:45:04.804Z,"  135"
2017-08-12T14:50:03.999Z,"  120"
2017-08-12T14:55:00.379Z,"   90"
2017-08-12T14:59:55.657Z,"   55"
2017-08-12T15:04:52.782Z,"   55"
2017-08-12T15:09:48.538Z,"   95"
2017-08-12T15:14:44.613Z,"   75"
2017-08-12T15:19:41.632Z,"   70"
2017-08-12T15:24:37.441Z,"   60"
2017-08-12T15:34:32.563Z,"   75"
2017-08-12T15:39:28.507Z,"  150"
2017-08-12T15:44:25.055Z,"  215"
2017-08-12T15:49:22.275Z,"  195"
2017-08-12T15:54:18.375Z,"  150"
2017-08-12T15:59:14.158Z,"  115"
2017-08-12T16:04:11.424Z,"  145"
2017-08-12T16:09:09.255Z,"  110"
2017-08-12T16:14:05.615Z,"  105"
2017-08-12T16:19:03.078Z,"  110"
2017-08-12T16:23:59.156Z,"   80"
2017-08-12T16:28:55.200Z,"   40"
2017-08-12T16:33:52.018Z,"   45"
2017-08-12T16:38:48.729Z,"   25"
2017-08-12T16:43:46.402Z,"   40"
2017-08-12T16:48:42.119Z,"   20"
2017-08-12T16:53:38.963Z,"   35"
2017-08-12T17:03:38.282Z,"   20"
2017-08-12T17:13:40.377Z,"   30"
2017-08-12T17:28:41.705Z,"   40"
2017-08-12T17:33:38.382Z,"   45"
2017-08-12T17:38:33.995Z,"   80"
2017-08-12T17:43:30.982Z,"   75"
2017-08-12T17:48:26.976Z,"   55"
2017-08-12T17:53:23.835Z,"   45"
2017-08-12T17:58:20.123Z,"   30"
2017-08-12T18:03:17.396Z,"   35"
2017-08-12T18:08:13.363Z,"   45"
2017-08-12T18:13:09.088Z,"   30"
2017-08-12T18:18:04.735Z,"   15"
2017-08-12T18:23:02.245Z,"   10"
2017-08-12T18:27:58.918Z,"   10"
2017-08-12T18:33:00.493Z,"   10"
2017-08-12T18:43:02.928Z,"    5"
2017-08-12T18:53:04.206Z,"    0"
2017-08-12T19:08:06.166Z,"    0"
2017-08-12T19:18:06.684Z,"    0"
2017-08-12T19:23:06.308Z,"    0"
2017-08-12T19:28:03.158Z,"    0"
2017-08-12T19:33:02.644Z,"    0"
2017-08-12T19:48:06.563Z,"    0"
2017-08-12T19:58:10.303Z,"    0"
2017-08-12T20:03:07.786Z,"    0"
2017-08-12T20:08:07.089Z,"    0"
2017-08-12T20:13:06.763Z,"    0"
2017-08-12T20:18:02.955Z,"    0"
2017-08-12T20:23:00.003Z,"    0"
2017-08-12T20:33:01.900Z,"    0"
2017-08-12T20:43:01.508Z,"    0"
2017-08-12T20:47:57.431Z,"    0"
2017-08-12T20:52:56.651Z,"    0"
2017-08-12T21:02:54.298Z,"    0"
2017-08-12T21:07:51.069Z,"    0"
2017-08-12T21:12:47.685Z,"    0"
2017-08-12T21:17:43.246Z,"    0"
2017-08-12T21:22:39.914Z,"    0"
2017-08-12T21:27:36.825Z,"    0"
2017-08-12T21:32:33.364Z,"    0"
2017-08-12T21:37:28.898Z,"    0"
2017-08-12T21:42:24.924Z,"    0"
2017-08-12T21:47:21.726Z,"    0"
2017-08-12T21:52:20.092Z,"    0"
2017-08-12T21:57:15.904Z,"    0"
2017-08-12T22:02:14.088Z,"    0"
2017-08-12T22:07:11.177Z,"    0"
2017-08-12T22:12:13.095Z,"    0"
2017-08-12T22:17:14.469Z,"    0"
2017-08-12T22:22:10.133Z,"    0"
2017-08-12T22:42:23.478Z,"    0"
2017-08-12T22:47:21.254Z,"    0"
2017-08-12T22:52:20.077Z,"    0"
2017-08-12T23:12:29.101Z,"    0"
2017-08-12T23:17:26.203Z,"    0"
2017-08-12T23:22:24.164Z,"    0"
2017-08-12T23:47:31.292Z,"    0"
2017-08-12T23:57:38.216Z,"    0"
